EWG81C EDDS-LIRF
Flight info
| Callsign | EWG81C |
|---|---|
| Flight time | 1h 10m |
| Altitude | 31000 |
| Route | ROTWE5B/25 ROTWE Y126 TUBLO N850 NATOR DCT TRA DCT RIPUS DCT GERSA DCT SOSON DCT ODINA DCT EKPAL DCT TINKU DCT XIBIL XIBIL3A |
| Aircraft | A319/M-SDE3FGHIRWY/LB1 |
Departure
| Time | 2026-02-18 12:41 |
|---|---|
| Airport | Stuttgart Airport (EDDS) |
Arrival
| Time | 2026-02-18 13:51 |
|---|---|
| Airport | Rome–Fiumicino Leonardo da Vinci International Airport (LIRF) |
| Time | Latitude | Longitude | Altitude | Speed | Heading |
|---|---|---|---|---|---|
| 2026-02-18 12:08 | 48.68885 | 9.19435 | 1267 ft | 0 kts | 344° |
| 2026-02-18 12:24 | 48.68879 | 9.19438 | 1267 ft | 2 kts | 343° |
| 2026-02-18 12:25 | 48.68866 | 9.19443 | 1269 ft | 2 kts | 343° |
| 2026-02-18 12:25 | 48.68841 | 9.19454 | 1267 ft | 1 kts | 347° |
| 2026-02-18 12:25 | 48.68832 | 9.19457 | 1274 ft | 1 kts | 354° |
| 2026-02-18 12:26 | 48.68824 | 9.19456 | 1271 ft | 1 kts | 29° |
| 2026-02-18 12:26 | 48.68819 | 9.19449 | 1274 ft | 1 kts | 60° |
| 2026-02-18 12:26 | 48.68816 | 9.19442 | 1275 ft | 1 kts | 67° |
| 2026-02-18 12:26 | 48.68815 | 9.19434 | 1276 ft | 1 kts | 71° |
| 2026-02-18 12:27 | 48.68814 | 9.19433 | 1277 ft | 0 kts | 71° |
| 2026-02-18 12:28 | 48.68815 | 9.19437 | 1276 ft | 2 kts | 72° |
| 2026-02-18 12:28 | 48.68825 | 9.19487 | 1285 ft | 8 kts | 75° |
| 2026-02-18 12:28 | 48.68836 | 9.19546 | 1272 ft | 2 kts | 74° |
| 2026-02-18 12:29 | 48.68841 | 9.19574 | 1267 ft | 2 kts | 74° |
| 2026-02-18 12:29 | 48.68841 | 9.19575 | 1267 ft | 0 kts | 74° |
| 2026-02-18 12:29 | 48.68842 | 9.19577 | 1267 ft | 2 kts | 74° |
| 2026-02-18 12:30 | 48.68852 | 9.19631 | 1271 ft | 10 kts | 74° |
| 2026-02-18 12:30 | 48.68875 | 9.19754 | 1272 ft | 13 kts | 73° |
| 2026-02-18 12:30 | 48.68873 | 9.19869 | 1275 ft | 10 kts | 138° |
| 2026-02-18 12:30 | 48.68820 | 9.19936 | 1269 ft | 11 kts | 99° |
| 2026-02-18 12:31 | 48.68840 | 9.20053 | 1269 ft | 12 kts | 73° |
| 2026-02-18 12:31 | 48.68865 | 9.20185 | 1271 ft | 14 kts | 74° |
| 2026-02-18 12:31 | 48.68893 | 9.20331 | 1270 ft | 15 kts | 73° |
| 2026-02-18 12:31 | 48.68923 | 9.20489 | 1269 ft | 16 kts | 74° |
| 2026-02-18 12:32 | 48.68956 | 9.20664 | 1269 ft | 18 kts | 73° |
| 2026-02-18 12:32 | 48.68990 | 9.20846 | 1276 ft | 19 kts | 73° |
| 2026-02-18 12:32 | 48.69028 | 9.21041 | 1267 ft | 20 kts | 74° |
| 2026-02-18 12:32 | 48.69066 | 9.21242 | 1273 ft | 20 kts | 74° |
| 2026-02-18 12:33 | 48.69103 | 9.21436 | 1267 ft | 20 kts | 74° |
| 2026-02-18 12:33 | 48.69176 | 9.21820 | 1267 ft | 19 kts | 74° |
| 2026-02-18 12:33 | 48.69213 | 9.22018 | 1270 ft | 20 kts | 74° |
| 2026-02-18 12:34 | 48.69252 | 9.22225 | 1274 ft | 21 kts | 74° |
| 2026-02-18 12:34 | 48.69293 | 9.22435 | 1274 ft | 22 kts | 74° |
| 2026-02-18 12:34 | 48.69334 | 9.22656 | 1267 ft | 22 kts | 74° |
| 2026-02-18 12:34 | 48.69376 | 9.22875 | 1267 ft | 21 kts | 73° |
| 2026-02-18 12:35 | 48.69416 | 9.23085 | 1268 ft | 21 kts | 74° |
| 2026-02-18 12:35 | 48.69456 | 9.23291 | 1271 ft | 19 kts | 74° |
| 2026-02-18 12:35 | 48.69491 | 9.23481 | 1266 ft | 19 kts | 74° |
| 2026-02-18 12:35 | 48.69527 | 9.23674 | 1273 ft | 20 kts | 74° |
| 2026-02-18 12:36 | 48.69566 | 9.23874 | 1266 ft | 19 kts | 73° |
| 2026-02-18 12:36 | 48.69600 | 9.24051 | 1269 ft | 17 kts | 74° |
| 2026-02-18 12:36 | 48.69592 | 9.24205 | 1269 ft | 14 kts | 118° |
| 2026-02-18 12:36 | 48.69545 | 9.24294 | 1265 ft | 9 kts | 153° |
| 2026-02-18 12:37 | 48.69507 | 9.24311 | 1267 ft | 0 kts | 164° |
| 2026-02-18 12:38 | 48.69506 | 9.24312 | 1263 ft | 2 kts | 164° |
| 2026-02-18 12:39 | 48.69464 | 9.24329 | 1260 ft | 12 kts | 165° |
| 2026-02-18 12:39 | 48.69386 | 9.24290 | 1260 ft | 8 kts | 247° |
| 2026-02-18 12:39 | 48.69381 | 9.24264 | 1264 ft | 0 kts | 254° |
| 2026-02-18 12:40 | 48.69380 | 9.24263 | 1264 ft | 1 kts | 254° |
| 2026-02-18 12:40 | 48.69324 | 9.23965 | 1263 ft | 65 kts | 253° |
| 2026-02-18 12:40 | 48.69140 | 9.22995 | 1267 ft | 124 kts | 254° |
| 2026-02-18 12:40 | 48.68859 | 9.21504 | 1313 ft | 164 kts | 253° |
| 2026-02-18 12:41 | 48.68555 | 9.19847 | 1888 ft | 163 kts | 255° |
| 2026-02-18 12:41 | 48.67991 | 9.16783 | 3477 ft | 150 kts | 257° |
| 2026-02-18 12:41 | 48.67804 | 9.15763 | 3668 ft | 161 kts | 257° |
| 2026-02-18 12:42 | 48.67390 | 9.13538 | 4070 ft | 189 kts | 257° |
| 2026-02-18 12:42 | 48.67158 | 9.12312 | 4392 ft | 202 kts | 256° |
| 2026-02-18 12:42 | 48.66768 | 9.10281 | 4941 ft | 220 kts | 256° |
| 2026-02-18 12:42 | 48.66313 | 9.07943 | 5604 ft | 234 kts | 256° |
| 2026-02-18 12:43 | 48.65889 | 9.05771 | 6498 ft | 235 kts | 256° |
| 2026-02-18 12:43 | 48.65424 | 9.03391 | 7401 ft | 239 kts | 256° |
| 2026-02-18 12:43 | 48.64951 | 9.00952 | 8260 ft | 243 kts | 256° |
| 2026-02-18 12:43 | 48.64479 | 8.98508 | 9160 ft | 247 kts | 256° |
| 2026-02-18 12:44 | 48.63993 | 8.95992 | 10024 ft | 252 kts | 256° |
| 2026-02-18 12:44 | 48.63485 | 8.93371 | 10506 ft | 270 kts | 256° |
| 2026-02-18 12:44 | 48.62946 | 8.90586 | 10769 ft | 293 kts | 256° |
| 2026-02-18 12:44 | 48.62326 | 8.87531 | 11300 ft | 305 kts | 252° |
| 2026-02-18 12:45 | 48.61418 | 8.84640 | 12048 ft | 313 kts | 243° |
| 2026-02-18 12:45 | 48.58584 | 8.79436 | 13509 ft | 328 kts | 232° |
| 2026-02-18 12:45 | 48.57025 | 8.76884 | 14179 ft | 332 kts | 232° |
| 2026-02-18 12:46 | 48.55457 | 8.74304 | 14886 ft | 335 kts | 233° |
| 2026-02-18 12:46 | 48.53896 | 8.71730 | 15541 ft | 339 kts | 233° |
| 2026-02-18 12:46 | 48.52375 | 8.69011 | 16222 ft | 338 kts | 241° |
| 2026-02-18 12:46 | 48.51520 | 8.66922 | 16644 ft | 336 kts | 248° |
| 2026-02-18 12:47 | 48.50848 | 8.64666 | 17137 ft | 333 kts | 255° |
| 2026-02-18 12:47 | 48.50235 | 8.61528 | 17773 ft | 332 kts | 260° |
| 2026-02-18 12:47 | 48.49325 | 8.58262 | 18378 ft | 345 kts | 248° |
| 2026-02-18 12:47 | 48.48079 | 8.55139 | 18949 ft | 350 kts | 245° |
| 2026-02-18 12:48 | 48.46823 | 8.52206 | 19490 ft | 354 kts | 245° |
| 2026-02-18 12:48 | 48.45464 | 8.49081 | 20068 ft | 356 kts | 245° |
| 2026-02-18 12:48 | 48.44110 | 8.45985 | 20624 ft | 359 kts | 245° |
| 2026-02-18 12:48 | 48.42563 | 8.43060 | 21140 ft | 375 kts | 234° |
| 2026-02-18 12:49 | 48.40476 | 8.40711 | 21637 ft | 397 kts | 219° |
| 2026-02-18 12:49 | 48.35050 | 8.37784 | 22598 ft | 427 kts | 203° |
| 2026-02-18 12:49 | 48.32120 | 8.36806 | 23084 ft | 435 kts | 201° |
| 2026-02-18 12:50 | 48.29269 | 8.35940 | 23538 ft | 440 kts | 201° |
| 2026-02-18 12:50 | 48.26269 | 8.35038 | 23891 ft | 446 kts | 201° |
| 2026-02-18 12:50 | 48.23261 | 8.34121 | 24214 ft | 450 kts | 201° |
| 2026-02-18 12:50 | 48.20195 | 8.33187 | 24547 ft | 458 kts | 200° |
| 2026-02-18 12:51 | 48.17066 | 8.32702 | 24868 ft | 475 kts | 190° |
| 2026-02-18 12:51 | 48.13908 | 8.32897 | 25155 ft | 491 kts | 180° |
| 2026-02-18 12:51 | 48.10545 | 8.33717 | 25437 ft | 500 kts | 177° |
| 2026-02-18 12:51 | 48.08197 | 8.34307 | 25667 ft | 503 kts | 178° |
| 2026-02-18 12:52 | 48.05362 | 8.34999 | 25916 ft | 507 kts | 178° |
| 2026-02-18 12:52 | 48.01971 | 8.35815 | 26189 ft | 511 kts | 178° |
| 2026-02-18 12:52 | 47.98722 | 8.36590 | 26456 ft | 516 kts | 178° |
| 2026-02-18 12:52 | 47.95210 | 8.37430 | 26741 ft | 521 kts | 178° |
| 2026-02-18 12:53 | 47.91618 | 8.38289 | 27024 ft | 525 kts | 178° |
| 2026-02-18 12:53 | 47.84373 | 8.40022 | 27559 ft | 534 kts | 178° |
| 2026-02-18 12:53 | 47.80737 | 8.40891 | 27833 ft | 539 kts | 178° |
| 2026-02-18 12:54 | 47.77401 | 8.41690 | 28078 ft | 542 kts | 178° |
| 2026-02-18 12:54 | 47.73757 | 8.42561 | 28330 ft | 546 kts | 178° |
| 2026-02-18 12:54 | 47.71395 | 8.43125 | 28493 ft | 548 kts | 178° |
| 2026-02-18 12:54 | 47.68126 | 8.43841 | 28704 ft | 549 kts | 180° |
| 2026-02-18 12:55 | 47.64553 | 8.44375 | 28920 ft | 551 kts | 182° |
| 2026-02-18 12:55 | 47.60732 | 8.44928 | 29188 ft | 555 kts | 182° |
| 2026-02-18 12:55 | 47.56865 | 8.45492 | 29402 ft | 559 kts | 182° |
| 2026-02-18 12:55 | 47.54314 | 8.45865 | 29568 ft | 561 kts | 182° |
| 2026-02-18 12:56 | 47.49194 | 8.46616 | 29870 ft | 566 kts | 182° |
| 2026-02-18 12:56 | 47.45383 | 8.47176 | 30085 ft | 570 kts | 182° |
| 2026-02-18 12:56 | 47.41376 | 8.47765 | 30353 ft | 571 kts | 182° |
| 2026-02-18 12:57 | 47.33872 | 8.48864 | 30845 ft | 575 kts | 182° |
| 2026-02-18 12:57 | 47.30482 | 8.49358 | 30946 ft | 577 kts | 182° |
| 2026-02-18 12:58 | 47.23036 | 8.50440 | 30939 ft | 576 kts | 182° |
| 2026-02-18 12:58 | 47.16586 | 8.51377 | 30936 ft | 577 kts | 182° |
| 2026-02-18 12:59 | 47.08915 | 8.52490 | 30939 ft | 577 kts | 182° |
| 2026-02-18 12:59 | 47.01079 | 8.53624 | 30928 ft | 578 kts | 182° |
| 2026-02-18 13:00 | 46.93027 | 8.54786 | 30943 ft | 583 kts | 182° |
| 2026-02-18 13:00 | 46.84943 | 8.55945 | 30908 ft | 586 kts | 181° |
| 2026-02-18 13:01 | 46.72818 | 8.57684 | 30986 ft | 588 kts | 182° |
| 2026-02-18 13:01 | 46.65118 | 8.58787 | 30957 ft | 577 kts | 182° |
| 2026-02-18 13:02 | 46.57766 | 8.59455 | 30904 ft | 579 kts | 187° |
| 2026-02-18 13:02 | 46.49825 | 8.59316 | 30802 ft | 568 kts | 193° |
| 2026-02-18 13:03 | 46.42018 | 8.58345 | 30719 ft | 563 kts | 196° |
| 2026-02-18 13:03 | 46.34194 | 8.57022 | 30515 ft | 578 kts | 198° |
| 2026-02-18 13:04 | 46.30309 | 8.56333 | 30186 ft | 589 kts | 195° |
| 2026-02-18 13:04 | 46.26615 | 8.55955 | 29825 ft | 603 kts | 191° |
| 2026-02-18 13:04 | 46.22730 | 8.55884 | 29364 ft | 613 kts | 186° |
| 2026-02-18 13:04 | 46.18451 | 8.56281 | 28923 ft | 618 kts | 181° |
| 2026-02-18 13:05 | 46.12523 | 8.57589 | 28323 ft | 620 kts | 173° |
| 2026-02-18 13:05 | 46.08604 | 8.59026 | 28789 ft | 612 kts | 165° |
| 2026-02-18 13:05 | 46.05099 | 8.61088 | 29504 ft | 603 kts | 154° |
| 2026-02-18 13:06 | 46.01567 | 8.64161 | 30382 ft | 590 kts | 142° |
| 2026-02-18 13:06 | 45.98450 | 8.67943 | 30804 ft | 581 kts | 130° |
| 2026-02-18 13:06 | 45.95839 | 8.72334 | 30940 ft | 577 kts | 118° |
| 2026-02-18 13:07 | 45.91833 | 8.81363 | 30937 ft | 575 kts | 121° |
| 2026-02-18 13:07 | 45.89183 | 8.85640 | 30934 ft | 582 kts | 133° |
| 2026-02-18 13:07 | 45.86089 | 8.89424 | 30937 ft | 587 kts | 141° |
| 2026-02-18 13:08 | 45.79401 | 8.96100 | 30946 ft | 584 kts | 146° |
| 2026-02-18 13:08 | 45.74312 | 9.00851 | 30961 ft | 585 kts | 146° |
| 2026-02-18 13:09 | 45.65554 | 9.09030 | 30967 ft | 583 kts | 146° |
| 2026-02-18 13:09 | 45.59434 | 9.14761 | 30958 ft | 582 kts | 146° |
| 2026-02-18 13:10 | 45.52711 | 9.21051 | 30975 ft | 580 kts | 146° |
| 2026-02-18 13:10 | 45.46011 | 9.27294 | 30958 ft | 579 kts | 147° |
| 2026-02-18 13:11 | 45.39251 | 9.33575 | 30965 ft | 577 kts | 147° |
| 2026-02-18 13:11 | 45.32569 | 9.39765 | 30952 ft | 577 kts | 147° |
| 2026-02-18 13:12 | 45.26104 | 9.45737 | 30958 ft | 575 kts | 147° |
| 2026-02-18 13:12 | 45.19404 | 9.51909 | 30954 ft | 575 kts | 147° |
| 2026-02-18 13:13 | 45.09351 | 9.61137 | 30938 ft | 573 kts | 147° |
| 2026-02-18 13:14 | 45.02658 | 9.67259 | 30936 ft | 572 kts | 147° |
| 2026-02-18 13:14 | 44.96174 | 9.73172 | 30931 ft | 572 kts | 147° |
| 2026-02-18 13:15 | 44.89496 | 9.79246 | 30937 ft | 572 kts | 147° |
| 2026-02-18 13:15 | 44.82850 | 9.85274 | 30930 ft | 572 kts | 147° |
| 2026-02-18 13:16 | 44.76185 | 9.91302 | 30951 ft | 572 kts | 147° |
| 2026-02-18 13:16 | 44.69503 | 9.97329 | 30940 ft | 570 kts | 147° |
| 2026-02-18 13:17 | 44.59722 | 10.06122 | 30953 ft | 570 kts | 148° |
| 2026-02-18 13:17 | 44.54477 | 10.10828 | 30694 ft | 555 kts | 149° |
| 2026-02-18 13:18 | 44.52310 | 10.12764 | 30896 ft | 530 kts | 152° |
| 2026-02-18 13:18 | 44.48166 | 10.16000 | 30939 ft | 502 kts | 157° |
| 2026-02-18 13:18 | 44.41766 | 10.19794 | 30943 ft | 503 kts | 164° |
| 2026-02-18 13:19 | 44.35204 | 10.23240 | 30947 ft | 503 kts | 163° |
| 2026-02-18 13:19 | 44.28816 | 10.26630 | 30955 ft | 503 kts | 163° |
| 2026-02-18 13:20 | 44.22486 | 10.29970 | 30955 ft | 502 kts | 163° |
| 2026-02-18 13:20 | 44.15944 | 10.33407 | 30953 ft | 501 kts | 164° |
| 2026-02-18 13:21 | 44.06169 | 10.38530 | 30951 ft | 500 kts | 164° |
| 2026-02-18 13:22 | 43.99665 | 10.41927 | 30966 ft | 499 kts | 164° |
| 2026-02-18 13:22 | 43.93212 | 10.45291 | 30979 ft | 498 kts | 164° |
| 2026-02-18 13:23 | 43.86726 | 10.48664 | 30986 ft | 497 kts | 164° |
| 2026-02-18 13:23 | 43.80253 | 10.52023 | 31004 ft | 497 kts | 164° |
| 2026-02-18 13:24 | 43.73758 | 10.55345 | 31007 ft | 496 kts | 165° |
| 2026-02-18 13:24 | 43.67219 | 10.58353 | 31004 ft | 494 kts | 166° |
| 2026-02-18 13:25 | 43.60181 | 10.61572 | 31001 ft | 495 kts | 166° |
| 2026-02-18 13:26 | 43.56917 | 10.63078 | 30997 ft | 495 kts | 166° |
| 2026-02-18 13:26 | 43.50421 | 10.66083 | 30993 ft | 495 kts | 166° |
| 2026-02-18 13:27 | 43.43908 | 10.69092 | 30986 ft | 495 kts | 166° |
| 2026-02-18 13:27 | 43.37374 | 10.72103 | 30986 ft | 495 kts | 166° |
| 2026-02-18 13:28 | 43.30841 | 10.75107 | 30980 ft | 495 kts | 166° |
| 2026-02-18 13:28 | 43.24314 | 10.78099 | 30974 ft | 495 kts | 166° |
| 2026-02-18 13:29 | 43.14566 | 10.82559 | 30975 ft | 495 kts | 166° |
| 2026-02-18 13:30 | 43.08099 | 10.85509 | 30979 ft | 495 kts | 166° |
| 2026-02-18 13:30 | 43.01563 | 10.88484 | 30787 ft | 494 kts | 166° |
| 2026-02-18 13:30 | 42.98310 | 10.89961 | 30183 ft | 495 kts | 166° |
| 2026-02-18 13:31 | 42.95024 | 10.91450 | 29210 ft | 498 kts | 166° |
| 2026-02-18 13:31 | 42.91866 | 10.92882 | 28520 ft | 494 kts | 166° |
| 2026-02-18 13:31 | 42.88628 | 10.94353 | 28127 ft | 483 kts | 166° |
| 2026-02-18 13:31 | 42.85535 | 10.95758 | 27792 ft | 472 kts | 166° |
| 2026-02-18 13:32 | 42.82409 | 10.97308 | 27202 ft | 470 kts | 159° |
| 2026-02-18 13:32 | 42.79573 | 10.99581 | 26324 ft | 478 kts | 145° |
| 2026-02-18 13:32 | 42.77146 | 11.02687 | 25691 ft | 479 kts | 131° |
| 2026-02-18 13:32 | 42.75304 | 11.06314 | 25362 ft | 469 kts | 120° |
| 2026-02-18 13:33 | 42.72180 | 11.13866 | 24468 ft | 459 kts | 120° |
| 2026-02-18 13:33 | 42.70583 | 11.17537 | 23931 ft | 456 kts | 122° |
| 2026-02-18 13:33 | 42.68922 | 11.21188 | 23337 ft | 453 kts | 122° |
| 2026-02-18 13:34 | 42.67242 | 11.24780 | 22775 ft | 449 kts | 123° |
| 2026-02-18 13:34 | 42.65650 | 11.28142 | 22238 ft | 444 kts | 123° |
| 2026-02-18 13:34 | 42.64020 | 11.31651 | 21967 ft | 433 kts | 122° |
| 2026-02-18 13:34 | 42.62526 | 11.34975 | 21803 ft | 419 kts | 122° |
| 2026-02-18 13:35 | 42.61013 | 11.38356 | 21667 ft | 406 kts | 122° |
| 2026-02-18 13:35 | 42.59584 | 11.41539 | 21521 ft | 393 kts | 122° |
| 2026-02-18 13:35 | 42.58188 | 11.44633 | 21346 ft | 376 kts | 122° |
| 2026-02-18 13:35 | 42.56852 | 11.47584 | 21183 ft | 360 kts | 122° |
| 2026-02-18 13:36 | 42.55563 | 11.50421 | 20991 ft | 350 kts | 122° |
| 2026-02-18 13:36 | 42.54280 | 11.53241 | 20596 ft | 350 kts | 122° |
| 2026-02-18 13:36 | 42.53013 | 11.56021 | 20252 ft | 348 kts | 122° |
| 2026-02-18 13:36 | 42.51740 | 11.58814 | 19915 ft | 346 kts | 123° |
| 2026-02-18 13:37 | 42.49285 | 11.64193 | 19081 ft | 340 kts | 123° |
| 2026-02-18 13:37 | 42.48051 | 11.66895 | 18619 ft | 337 kts | 123° |
| 2026-02-18 13:37 | 42.46838 | 11.69547 | 18157 ft | 334 kts | 123° |
| 2026-02-18 13:38 | 42.45620 | 11.72208 | 17625 ft | 331 kts | 123° |
| 2026-02-18 13:38 | 42.44416 | 11.74835 | 17139 ft | 327 kts | 123° |
| 2026-02-18 13:38 | 42.44014 | 11.75712 | 16972 ft | 326 kts | 123° |
| 2026-02-18 13:38 | 42.42042 | 11.80010 | 16146 ft | 320 kts | 123° |
| 2026-02-18 13:39 | 42.40875 | 11.82552 | 15674 ft | 318 kts | 123° |
| 2026-02-18 13:39 | 42.39762 | 11.84973 | 15230 ft | 314 kts | 123° |
| 2026-02-18 13:39 | 42.38569 | 11.87566 | 14743 ft | 311 kts | 123° |
| 2026-02-18 13:39 | 42.37446 | 11.90005 | 14304 ft | 308 kts | 124° |
| 2026-02-18 13:40 | 42.36294 | 11.92425 | 13896 ft | 302 kts | 132° |
| 2026-02-18 13:40 | 42.34758 | 11.94166 | 13649 ft | 280 kts | 159° |
| 2026-02-18 13:40 | 42.32954 | 11.95040 | 13104 ft | 275 kts | 168° |
| 2026-02-18 13:40 | 42.31143 | 11.95796 | 12632 ft | 273 kts | 168° |
| 2026-02-18 13:41 | 42.27545 | 11.97316 | 11705 ft | 269 kts | 168° |
| 2026-02-18 13:41 | 42.25763 | 11.98074 | 11267 ft | 267 kts | 167° |
| 2026-02-18 13:41 | 42.24023 | 11.98815 | 10843 ft | 265 kts | 167° |
| 2026-02-18 13:42 | 42.22249 | 11.99570 | 10404 ft | 263 kts | 167° |
| 2026-02-18 13:42 | 42.20506 | 12.00312 | 9987 ft | 262 kts | 167° |
| 2026-02-18 13:42 | 42.18801 | 12.01038 | 9565 ft | 259 kts | 167° |
| 2026-02-18 13:42 | 42.17097 | 12.01767 | 9121 ft | 256 kts | 167° |
| 2026-02-18 13:43 | 42.15403 | 12.02494 | 8690 ft | 253 kts | 167° |
| 2026-02-18 13:43 | 42.13737 | 12.03208 | 8289 ft | 248 kts | 167° |
| 2026-02-18 13:43 | 42.12139 | 12.04025 | 7775 ft | 248 kts | 154° |
| 2026-02-18 13:43 | 42.10801 | 12.05482 | 7256 ft | 249 kts | 135° |
| 2026-02-18 13:44 | 42.09683 | 12.07179 | 6791 ft | 244 kts | 136° |
| 2026-02-18 13:44 | 42.08552 | 12.08854 | 6333 ft | 239 kts | 136° |
| 2026-02-18 13:44 | 42.07451 | 12.10468 | 5881 ft | 232 kts | 137° |
| 2026-02-18 13:44 | 42.06373 | 12.12038 | 5420 ft | 227 kts | 136° |
| 2026-02-18 13:45 | 42.04284 | 12.15080 | 4529 ft | 215 kts | 136° |
| 2026-02-18 13:45 | 42.03271 | 12.16558 | 3972 ft | 214 kts | 136° |
| 2026-02-18 13:45 | 42.02259 | 12.18018 | 3487 ft | 210 kts | 141° |
| 2026-02-18 13:46 | 42.01091 | 12.19039 | 3264 ft | 192 kts | 158° |
| 2026-02-18 13:46 | 41.99909 | 12.19672 | 3055 ft | 181 kts | 163° |
| 2026-02-18 13:46 | 41.98842 | 12.20143 | 2867 ft | 168 kts | 165° |
| 2026-02-18 13:46 | 41.97761 | 12.20602 | 2642 ft | 158 kts | 165° |
| 2026-02-18 13:47 | 41.96748 | 12.21029 | 2429 ft | 147 kts | 166° |
| 2026-02-18 13:47 | 41.95801 | 12.21425 | 2235 ft | 138 kts | 165° |
| 2026-02-18 13:47 | 41.94917 | 12.21799 | 2054 ft | 132 kts | 166° |
| 2026-02-18 13:47 | 41.94031 | 12.22173 | 1877 ft | 132 kts | 165° |
| 2026-02-18 13:48 | 41.93157 | 12.22542 | 1698 ft | 130 kts | 165° |
| 2026-02-18 13:48 | 41.92306 | 12.22901 | 1526 ft | 127 kts | 166° |
| 2026-02-18 13:48 | 41.91473 | 12.23253 | 1345 ft | 127 kts | 166° |
| 2026-02-18 13:48 | 41.90632 | 12.23603 | 1193 ft | 124 kts | 166° |
| 2026-02-18 13:49 | 41.89035 | 12.24278 | 984 ft | 123 kts | 166° |
| 2026-02-18 13:49 | 41.88247 | 12.24606 | 817 ft | 124 kts | 165° |
| 2026-02-18 13:49 | 41.87419 | 12.24956 | 639 ft | 122 kts | 165° |
| 2026-02-18 13:50 | 41.86616 | 12.25295 | 473 ft | 122 kts | 166° |
| 2026-02-18 13:50 | 41.85796 | 12.25656 | 299 ft | 124 kts | 165° |
| 2026-02-18 13:50 | 41.84991 | 12.26007 | 138 ft | 119 kts | 167° |
| 2026-02-18 13:50 | 41.84225 | 12.26319 | 25 ft | 113 kts | 167° |
| 2026-02-18 13:51 | 41.83615 | 12.26552 | 22 ft | 68 kts | 162° |
| 2026-02-18 13:51 | 41.83248 | 12.26713 | 22 ft | 49 kts | 162° |
| 2026-02-18 13:51 | 41.82953 | 12.26831 | 23 ft | 37 kts | 167° |
| 2026-02-18 13:51 | 41.82742 | 12.26867 | 25 ft | 24 kts | 182° |
| 2026-02-18 13:52 | 41.82579 | 12.26831 | 19 ft | 18 kts | 192° |
| 2026-02-18 13:52 | 41.82453 | 12.26794 | 18 ft | 20 kts | 192° |
| 2026-02-18 13:52 | 41.82314 | 12.26785 | 18 ft | 21 kts | 171° |
| 2026-02-18 13:52 | 41.82176 | 12.26838 | 15 ft | 20 kts | 165° |
| 2026-02-18 13:53 | 41.81924 | 12.26944 | 17 ft | 18 kts | 166° |
| 2026-02-18 13:53 | 41.81679 | 12.26912 | 23 ft | 17 kts | 171° |
| 2026-02-18 13:54 | 41.81568 | 12.26956 | 21 ft | 17 kts | 162° |
| 2026-02-18 13:54 | 41.81445 | 12.27007 | 21 ft | 19 kts | 162° |
| 2026-02-18 13:54 | 41.81314 | 12.27062 | 19 ft | 21 kts | 163° |
| 2026-02-18 13:55 | 41.81035 | 12.27180 | 16 ft | 19 kts | 159° |
| 2026-02-18 13:55 | 41.80901 | 12.27224 | 13 ft | 20 kts | 179° |
| 2026-02-18 13:55 | 41.80791 | 12.27170 | 12 ft | 14 kts | 227° |
| 2026-02-18 13:55 | 41.80747 | 12.27040 | 11 ft | 17 kts | 250° |
| 2026-02-18 13:56 | 41.80703 | 12.26886 | 12 ft | 18 kts | 249° |
| 2026-02-18 13:56 | 41.80662 | 12.26732 | 14 ft | 17 kts | 251° |
| 2026-02-18 13:56 | 41.80620 | 12.26577 | 15 ft | 18 kts | 249° |
| 2026-02-18 13:56 | 41.80577 | 12.26420 | 17 ft | 18 kts | 251° |
| 2026-02-18 13:57 | 41.80444 | 12.26173 | 14 ft | 17 kts | 193° |
| 2026-02-18 13:57 | 41.80333 | 12.26109 | 16 ft | 18 kts | 205° |
| 2026-02-18 13:57 | 41.80218 | 12.26037 | 15 ft | 18 kts | 205° |
| 2026-02-18 13:58 | 41.80103 | 12.25965 | 18 ft | 18 kts | 204° |